Time;durP1;ratioP1;P1;durP2;ratioP2;P2;SDS_P1;SDS_P2;PMS_P1;PMS_P2;Temp;Humidity;BMP_temperature;BMP_pressure;BME280_temperature;BME280_humidity;BME280_pressure;Samples;Min_cycle;Max_cycle;Signal;HPM_P1;HPM_P2
2022/06/22 00:00:13;;;;;;;4.40;4.00;;;;;;;;;;5112387;28;20462;-67
2022/06/22 00:02:41;;;;;;;4.30;3.90;;;;;;;;;;5109647;28;20934;-68
2022/06/22 00:05:14;;;;;;;8.10;4.20;;;;;;;;;;5113022;28;20444;-67
2022/06/22 00:07:44;;;;;;;4.70;4.30;;;;;;;;;;5113288;28;20447;-67
2022/06/22 00:10:15;;;;;;;4.60;4.00;;;;;;;;;;5113355;28;20596;-67
2022/06/22 00:12:48;;;;;;;4.73;4.33;;;;;;;;;;5113473;28;20452;-67
2022/06/22 00:15:22;;;;;;;4.70;4.30;;;;;;;;;;5112939;28;20505;-67
2022/06/22 00:17:49;;;;;;;4.97;3.70;;;;;;;;;;5112958;28;20443;-72
2022/06/22 00:20:21;;;;;;;4.43;4.03;;;;;;;;;;5112186;28;20542;-68
2022/06/22 00:22:50;;;;;;;4.40;4.00;;;;;;;;;;5105405;28;20459;-67
2022/06/22 00:25:21;;;;;;;3.93;3.63;;;;;;;;;;5113097;28;20448;-67
2022/06/22 00:27:50;;;;;;;4.77;4.00;;;;;;;;;;5112585;28;20483;-67
2022/06/22 00:30:21;;;;;;;4.40;4.00;;;;;;;;;;5112181;28;20439;-67
2022/06/22 00:32:55;;;;;;;3.70;3.40;;;;;;;;;;5113097;28;20539;-67
2022/06/22 00:35:41;;;;;;;4.40;3.80;;;;;;;;;;5112432;28;20956;-67
2022/06/22 00:38:09;;;;;;;4.67;4.27;;;;;;;;;;5107806;28;20443;-67
2022/06/22 00:40:37;;;;;;;4.83;3.83;;;;;;;;;;5112443;28;20451;-67
2022/06/22 00:43:06;;;;;;;5.27;4.87;;;;;;;;;;5111794;28;20480;-66
2022/06/22 00:45:34;;;;;;;4.57;4.07;;;;;;;;;;5112723;28;20527;-67
2022/06/22 00:48:03;;;;;;;4.37;3.97;;;;;;;;;;5112030;28;20792;-67
2022/06/22 00:50:37;;;;;;;4.87;4.03;;;;;;;;;;5102252;28;20809;-67
2022/06/22 00:53:06;;;;;;;5.03;4.47;;;;;;;;;;5112022;28;20447;-67
2022/06/22 00:55:34;;;;;;;4.63;4.23;;;;;;;;;;5111429;28;20452;-66
2022/06/22 00:58:04;;;;;;;5.47;4.30;;;;;;;;;;5111798;28;20450;-66
2022/06/22 01:00:34;;;;;;;4.43;4.03;;;;;;;;;;5111524;28;20440;-66
2022/06/22 01:03:05;;;;;;;4.73;4.10;;;;;;;;;;5111639;28;20448;-66
2022/06/22 01:05:34;;;;;;;3.80;3.50;;;;;;;;;;5112191;28;20459;-66
2022/06/22 01:08:07;;;;;;;4.03;3.63;;;;;;;;;;5111695;28;20450;-66
2022/06/22 01:10:38;;;;;;;4.33;3.93;;;;;;;;;;5111334;28;20517;-66
2022/06/22 01:13:09;;;;;;;5.30;4.30;;;;;;;;;;5110017;28;20452;-66
2022/06/22 01:15:41;;;;;;;4.63;3.90;;;;;;;;;;5111563;28;21010;-66
2022/06/22 01:18:11;;;;;;;5.30;4.03;;;;;;;;;;5103784;28;20815;-66
2022/06/22 01:20:45;;;;;;;5.10;4.60;;;;;;;;;;5111115;28;20456;-66
2022/06/22 01:23:23;;;;;;;4.70;4.30;;;;;;;;;;5112070;28;20453;-66
2022/06/22 01:25:53;;;;;;;4.03;3.73;;;;;;;;;;5111325;28;20479;-65
2022/06/22 01:28:21;;;;;;;4.13;3.77;;;;;;;;;;5111453;28;20777;-67
2022/06/22 01:30:51;;;;;;;4.00;3.60;;;;;;;;;;5111017;28;20820;-66
2022/06/22 01:33:19;;;;;;;4.07;3.77;;;;;;;;;;5111912;28;20513;-66
2022/06/22 01:35:46;;;;;;;4.77;4.37;;;;;;;;;;5103286;28;20857;-66
2022/06/22 01:38:23;;;;;;;5.23;4.70;;;;;;;;;;5111070;28;20460;-66
2022/06/22 01:40:53;;;;;;;3.83;3.40;;;;;;;;;;5110645;28;20996;-66
2022/06/22 01:43:27;;;;;;;4.00;3.70;;;;;;;;;;5110815;28;20444;-66
2022/06/22 01:45:57;;;;;;;4.67;4.00;;;;;;;;;;5111191;28;20932;-66
2022/06/22 01:48:26;;;;;;;5.87;4.50;;;;;;;;;;5110501;28;20446;-66
2022/06/22 01:50:55;;;;;;;3.93;3.53;;;;;;;;;;5110541;28;20448;-66
2022/06/22 01:53:29;;;;;;;5.97;4.17;;;;;;;;;;5111408;28;20444;-66
2022/06/22 01:56:00;;;;;;;7.73;3.40;;;;;;;;;;5110731;28;20456;-67
2022/06/22 01:58:41;;;;;;;6.80;4.47;;;;;;;;;;5111205;28;20986;-67
2022/06/22 02:01:14;;;;;;;3.90;3.60;;;;;;;;;;5109945;28;20452;-67
2022/06/22 02:03:43;;;;;;;4.37;3.97;;;;;;;;;;5110548;28;20543;-67
2022/06/22 02:08:55;;;;;;;4.07;3.67;;;;;;;;;;5109337;28;20930;-67
2022/06/22 02:11:25;;;;;;;3.60;3.30;;;;;;;;;;5109701;28;20522;-66
2022/06/22 02:13:56;;;;;;;4.33;3.80;;;;;;;;;;5110237;28;20448;-70
2022/06/22 02:16:24;;;;;;;4.80;4.07;;;;;;;;;;5110190;28;20452;-66
2022/06/22 02:18:52;;;;;;;4.53;4.13;;;;;;;;;;5109994;28;20452;-70
2022/06/22 02:21:22;;;;;;;5.30;3.90;;;;;;;;;;5109763;28;20790;-70
2022/06/22 02:23:51;;;;;;;6.50;4.43;;;;;;;;;;5105942;28;20457;-66
2022/06/22 02:26:22;;;;;;;4.50;3.50;;;;;;;;;;5110724;28;20478;-66
2022/06/22 02:28:49;;;;;;;3.70;3.40;;;;;;;;;;5110269;28;20507;-66
2022/06/22 02:31:19;;;;;;;4.57;4.13;;;;;;;;;;5109574;28;20474;-66
2022/06/22 02:33:49;;;;;;;6.33;4.17;;;;;;;;;;5110270;28;20443;-66
2022/06/22 02:36:18;;;;;;;4.77;4.37;;;;;;;;;;5110421;28;20448;-66
2022/06/22 02:38:47;;;;;;;5.03;4.63;;;;;;;;;;5108281;28;20452;-66
2022/06/22 02:46:46;;;;;;;4.13;3.80;;;;;;;;;;5110121;28;20490;-66
2022/06/22 02:49:16;;;;;;;7.23;3.27;;;;;;;;;;5109360;28;21005;-67
2022/06/22 02:51:45;;;;;;;5.47;4.63;;;;;;;;;;5110001;28;20453;-67
2022/06/22 02:54:25;;;;;;;4.77;4.30;;;;;;;;;;5110046;28;20771;-67
2022/06/22 02:56:58;;;;;;;6.27;4.37;;;;;;;;;;5110142;28;20465;-73
2022/06/22 02:59:25;;;;;;;4.73;4.17;;;;;;;;;;5108948;28;20444;-68
2022/06/22 03:01:54;;;;;;;4.60;4.20;;;;;;;;;;5109558;28;20538;-72
2022/06/22 03:04:21;;;;;;;3.90;3.43;;;;;;;;;;5109513;28;20788;-68
2022/06/22 03:06:52;;;;;;;5.23;4.73;;;;;;;;;;5109991;28;20884;-67
2022/06/22 03:09:20;;;;;;;4.30;3.90;;;;;;;;;;5109567;28;20791;-69
2022/06/22 03:11:49;;;;;;;3.90;3.60;;;;;;;;;;5110482;28;20547;-66
2022/06/22 03:14:20;;;;;;;5.30;4.80;;;;;;;;;;5109290;28;20459;-67
2022/06/22 03:16:49;;;;;;;4.67;4.27;;;;;;;;;;5110247;28;20452;-66
2022/06/22 03:19:19;;;;;;;4.23;3.60;;;;;;;;;;5110148;28;20906;-66
2022/06/22 03:21:46;;;;;;;6.93;4.17;;;;;;;;;;5113945;28;20440;-66
2022/06/22 03:24:16;;;;;;;5.47;4.97;;;;;;;;;;5113501;28;20459;-66
2022/06/22 03:26:45;;;;;;;4.10;3.70;;;;;;;;;;5113461;28;20482;-66
2022/06/22 03:29:18;;;;;;;5.97;4.30;;;;;;;;;;5111077;28;20439;-66
2022/06/22 03:31:46;;;;;;;7.57;4.47;;;;;;;;;;5113280;28;20455;-65
2022/06/22 03:34:16;;;;;;;5.43;4.93;;;;;;;;;;5112901;28;21271;-66
2022/06/22 03:36:46;;;;;;;5.07;4.63;;;;;;;;;;5113594;28;20462;-66
2022/06/22 03:39:16;;;;;;;5.10;4.60;;;;;;;;;;5112775;28;20803;-66
2022/06/22 03:41:45;;;;;;;5.17;4.63;;;;;;;;;;5113330;28;20527;-66
2022/06/22 03:44:15;;;;;;;5.10;4.67;;;;;;;;;;5112598;28;21238;-66
2022/06/22 03:46:44;;;;;;;6.73;4.93;;;;;;;;;;5109324;28;20845;-67
2022/06/22 03:49:13;;;;;;;5.27;4.10;;;;;;;;;;5103204;28;20583;-67
2022/06/22 03:51:42;;;;;;;5.30;4.70;;;;;;;;;;5113515;28;20476;-71
2022/06/22 03:54:14;;;;;;;4.80;4.40;;;;;;;;;;5112574;28;20443;-66
2022/06/22 03:56:43;;;;;;;5.57;4.97;;;;;;;;;;5112789;28;20466;-67
2022/06/22 03:59:10;;;;;;;6.23;4.93;;;;;;;;;;5112572;28;20451;-66
2022/06/22 04:01:37;;;;;;;4.93;4.40;;;;;;;;;;5110021;28;20450;-67
2022/06/22 04:04:05;;;;;;;5.20;4.80;;;;;;;;;;5111659;28;20783;-68
2022/06/22 04:06:33;;;;;;;4.80;4.33;;;;;;;;;;5105711;28;20526;-66
2022/06/22 04:09:01;;;;;;;5.07;4.47;;;;;;;;;;5112804;28;20455;-67
2022/06/22 04:11:34;;;;;;;6.30;4.60;;;;;;;;;;5100838;28;20460;-67
2022/06/22 04:14:03;;;;;;;7.00;4.87;;;;;;;;;;5112537;28;20806;-69
2022/06/22 04:16:34;;;;;;;4.20;3.83;;;;;;;;;;5113464;28;20447;-66
2022/06/22 04:19:03;;;;;;;5.10;4.70;;;;;;;;;;5113096;28;20515;-67
2022/06/22 04:21:32;;;;;;;5.03;4.63;;;;;;;;;;5110877;28;20446;-66
2022/06/22 04:24:01;;;;;;;5.37;4.17;;;;;;;;;;5110928;28;20455;-65
2022/06/22 04:26:32;;;;;;;6.70;5.00;;;;;;;;;;5113524;28;20463;-65
2022/06/22 04:29:01;;;;;;;5.70;4.90;;;;;;;;;;5105270;28;20554;-67
2022/06/22 04:31:30;;;;;;;6.33;4.37;;;;;;;;;;5110554;28;20443;-67
2022/06/22 04:34:21;;;;;;;5.07;4.57;;;;;;;;;;5128323;27;20335;-67
2022/06/22 04:36:50;;;;;;;5.67;5.17;;;;;;;;;;5129075;28;20534;-68
2022/06/22 04:39:20;;;;;;;5.00;4.57;;;;;;;;;;5128321;28;20792;-64
2022/06/22 04:41:47;;;;;;;5.17;4.73;;;;;;;;;;5128600;28;20457;-67
2022/06/22 04:44:16;;;;;;;6.10;5.57;;;;;;;;;;5128140;28;20471;-67
2022/06/22 04:46:44;;;;;;;7.23;4.60;;;;;;;;;;5127589;28;20988;-67
2022/06/22 04:49:17;;;;;;;4.70;4.30;;;;;;;;;;5126208;28;20457;-66
2022/06/22 04:51:48;;;;;;;5.50;5.00;;;;;;;;;;5127801;28;20967;-66
2022/06/22 04:54:20;;;;;;;5.73;5.23;;;;;;;;;;5127975;28;20445;-67
2022/06/22 04:56:49;;;;;;;5.00;4.60;;;;;;;;;;5128670;28;20442;-66
2022/06/22 04:59:17;;;;;;;5.47;4.97;;;;;;;;;;5127677;28;20998;-66
2022/06/22 05:01:47;;;;;;;5.17;4.73;;;;;;;;;;5128250;28;20502;-67
2022/06/22 05:04:15;;;;;;;5.07;4.60;;;;;;;;;;5128081;28;20816;-66
2022/06/22 05:06:45;;;;;;;5.37;4.87;;;;;;;;;;5128163;28;20431;-67
2022/06/22 05:09:17;;;;;;;5.10;4.60;;;;;;;;;;5127335;28;20484;-67
2022/06/22 05:11:46;;;;;;;5.03;4.37;;;;;;;;;;5135075;27;20460;-67
2022/06/22 05:14:15;;;;;;;5.23;4.73;;;;;;;;;;5130798;27;20482;-66
2022/06/22 05:16:45;;;;;;;5.63;5.10;;;;;;;;;;5128013;28;20442;-67
2022/06/22 05:19:14;;;;;;;4.83;4.43;;;;;;;;;;5127231;28;20802;-67
2022/06/22 05:21:44;;;;;;;5.13;4.63;;;;;;;;;;5127793;28;20489;-66
2022/06/22 05:24:17;;;;;;;5.10;4.60;;;;;;;;;;5127568;28;20522;-67
2022/06/22 05:26:45;;;;;;;5.40;5.00;;;;;;;;;;5128012;28;20442;-67
2022/06/22 05:29:16;;;;;;;6.10;4.70;;;;;;;;;;5126908;28;20443;-66
2022/06/22 05:31:44;;;;;;;5.70;5.17;;;;;;;;;;5127938;28;20539;-67
2022/06/22 05:34:20;;;;;;;5.63;5.07;;;;;;;;;;5127091;28;20483;-66
2022/06/22 05:36:51;;;;;;;5.30;4.80;;;;;;;;;;5127555;28;20921;-67
2022/06/22 05:39:18;;;;;;;5.77;5.20;;;;;;;;;;5127271;28;20944;-67
2022/06/22 05:41:48;;;;;;;6.17;5.00;;;;;;;;;;5127694;28;20451;-66
2022/06/22 05:44:18;;;;;;;7.10;4.67;;;36.40;1.00;;;;;;5121246;28;20443;-66
2022/06/22 05:46:51;;;;;;;5.83;5.30;;;22.70;1.00;;;;;;5113811;28;20509;-68
2022/06/22 05:49:18;;;;;;;6.03;4.60;;;22.50;1.00;;;;;;5113496;28;20454;-68
2022/06/22 05:51:54;;;;;;;4.93;4.40;;;22.60;1.00;;;;;;5113617;28;20464;-67
2022/06/22 05:54:27;;;;;;;5.40;4.37;;;22.60;1.00;;;;;;5113544;28;20479;-67
2022/06/22 05:57:02;;;;;;;5.00;4.60;;;22.60;99.90;;;;;;5113426;28;20446;-66
2022/06/22 05:59:38;;;;;;;5.23;4.73;;;22.70;96.90;;;;;;5112988;28;20442;-67
2022/06/22 06:02:10;;;;;;;4.97;4.20;;;22.80;1.00;;;;;;5112965;28;20450;-66
2022/06/22 06:04:43;;;;;;;4.70;4.30;;;22.90;1.00;;;;;;5113538;28;20790;-67
2022/06/22 06:07:15;;;;;;;5.33;4.20;;;22.80;1.00;;;;;;5112968;28;20957;-66
2022/06/22 06:09:42;;;;;;;5.10;4.47;;;23.00;1.00;;;;;;5112669;28;20440;-66
2022/06/22 06:12:15;;;;;;;3.97;3.57;;;22.80;1.00;;;;;;5123365;27;20450;-65
2022/06/22 06:14:46;;;;;;;5.50;4.00;;;22.80;1.00;;;;;;5100351;28;20438;-67
2022/06/22 06:17:17;;;;;;;4.47;4.07;;;22.70;1.00;;;;;;5113028;28;20441;-67
2022/06/22 06:19:49;;;;;;;5.10;4.60;;;22.70;1.00;;;;;;5112771;28;20451;-67
2022/06/22 06:22:16;;;;;;;5.57;4.30;;;22.80;1.00;;;;;;5113210;28;20814;-67
2022/06/22 06:27:38;;;;;;;4.43;4.03;;;22.70;1.00;;;;;;5112783;28;20428;-67
2022/06/22 06:30:09;;;;;;;5.53;5.03;;;22.70;1.00;;;;;;5112063;28;20456;-67
2022/06/22 06:32:45;;;;;;;6.20;4.30;;;22.60;87.40;;;;;;5112679;28;20475;-67
2022/06/22 06:35:19;;;;;;;5.07;4.40;;;22.70;99.90;;;;;;5112679;28;20439;-67
2022/06/22 06:37:54;;;;;;;5.13;4.73;;;22.70;1.00;;;;;;5113040;28;20527;-67
2022/06/22 06:40:25;;;;;;;5.73;4.90;;;22.50;1.00;;;;;;5112782;28;20443;-67
2022/06/22 06:43:16;;;;;;;4.57;4.17;;;22.70;99.90;;;;;;5112327;28;20444;-67
2022/06/22 06:45:43;;;;;;;6.70;4.87;;;22.70;99.90;;;;;;5112702;28;20443;-68
2022/06/22 06:48:17;;;;;;;4.83;4.43;;;22.70;1.00;;;;;;5111617;28;20534;-66
2022/06/22 06:50:49;;;;;;;6.40;4.60;;;22.80;1.00;;;;;;5112736;28;20447;-66
2022/06/22 06:53:25;;;;;;;7.00;4.97;;;22.90;99.90;;;;;;5112514;28;20526;-66
2022/06/22 06:55:57;;;;;;;5.80;4.70;;;22.90;99.90;;;;;;5111089;28;20499;-67
2022/06/22 06:58:32;;;;;;;6.03;4.20;;;23.00;1.00;;;;;;5111673;28;20985;-67
2022/06/22 07:00:59;;;;;;;5.87;5.00;;;23.10;99.90;;;;;;5111786;28;20446;-67
2022/06/22 07:03:29;;;;;;;4.80;4.40;;;23.10;1.00;;;;;;5112246;28;20452;-67
2022/06/22 07:05:56;;;;;;;5.83;4.60;;;23.00;1.00;;;;;;5111668;28;20914;-67
2022/06/22 07:08:30;;;;;;;4.33;3.93;;;23.10;99.90;;;;;;5111493;28;20432;-67
2022/06/22 07:11:01;;;;;;;5.73;5.00;;;23.10;1.00;;;;;;5112175;27;20440;-66
2022/06/22 07:13:33;;;;;;;5.27;4.03;;;23.00;1.00;;;;;;5121844;27;20590;-67
2022/06/22 07:16:06;;;;;;;5.20;4.10;;;23.00;1.00;;;;;;5111373;28;20452;-70
2022/06/22 07:18:37;;;;;;;5.60;4.67;;;22.70;1.00;;;;;;5111598;28;20450;-67
2022/06/22 07:21:14;;;;;;;6.23;4.23;;;22.60;99.90;;;;;;5111650;27;20435;-68
2022/06/22 07:23:46;;;;;;;4.70;4.30;;;22.60;1.00;;;;;;5111684;28;20447;-66
2022/06/22 07:26:21;;;;;;;5.77;4.30;;;22.60;97.50;;;;;;5111564;28;20515;-66
2022/06/22 07:28:54;;;;;;;7.37;5.57;;;22.60;99.90;;;;;;5111468;28;20526;-67
2022/06/22 07:31:26;;;;;;;4.80;4.27;;;22.50;1.00;;;;;;5111553;28;20535;-67
2022/06/22 07:33:59;;;;;;;5.47;4.97;;;22.60;99.90;;;;;;5111205;28;20488;-67
2022/06/22 07:36:31;;;;;;;5.70;5.17;;;22.60;99.90;;;;;;5111692;28;20849;-68
2022/06/22 07:39:06;;;;;;;6.30;4.67;;;22.40;1.00;;;;;;5110950;28;20436;-67
2022/06/22 07:41:34;;;;;;;4.90;4.30;;;22.40;99.90;;;;;;5111317;28;20436;-67
2022/06/22 07:44:05;;;;;;;5.37;4.57;;;22.50;1.00;;;;;;5111157;28;20454;-67
2022/06/22 07:46:38;;;;;;;7.57;4.23;;;22.60;1.00;;;;;;5111398;28;20454;-67
2022/06/22 07:49:09;;;;;;;5.33;4.80;;;22.50;1.80;;;;;;5108357;28;20451;-67
2022/06/22 07:51:41;;;;;;;6.07;5.10;;;22.60;97.80;;;;;;5111332;28;20528;-67
2022/06/22 07:54:14;;;;;;;5.10;4.60;;;22.60;1.00;;;;;;5110906;28;20478;-66
2022/06/22 07:56:52;;;;;;;5.43;4.93;;;22.70;99.90;;;;;;5111296;28;20493;-68
2022/06/22 07:59:27;;;;;;;4.70;4.23;;;22.80;99.90;;;;;;5108243;28;20482;-68
2022/06/22 08:01:59;;;;;;;5.30;4.80;;;22.90;1.00;;;;;;5110648;28;20446;-67
2022/06/22 08:04:32;;;;;;;5.83;5.03;;;22.90;2.90;;;;;;5110509;28;20863;-67
2022/06/22 08:07:04;;;;;;;5.53;4.90;;;23.10;1.00;;;;;;5110573;28;20497;-65
2022/06/22 08:09:36;;;;;;;7.00;4.90;;;23.30;1.00;;;;;;5110816;28;20534;-66
2022/06/22 08:12:09;;;;;;;5.57;4.40;;;23.10;1.00;;;;;;5120219;27;20435;-66
2022/06/22 08:14:42;;;;;;;5.00;4.60;;;23.20;1.00;;;;;;5110921;28;20478;-66
2022/06/22 08:17:15;;;;;;;5.03;4.57;;;23.10;1.00;;;;;;5110288;28;20444;-67
2022/06/22 08:19:43;;;;;;;7.40;5.17;;;23.20;1.00;;;;;;5110307;28;20783;-66
2022/06/22 08:22:12;;;;;;;4.47;4.17;;;23.20;1.00;;;;;;5110517;28;20566;-66
2022/06/22 08:24:42;;;;;;;5.33;4.40;;;23.20;1.00;;;;;;5110894;28;20563;-66
2022/06/22 08:27:14;;;;;;;5.80;4.00;;;23.20;1.00;;;;;;5110387;28;20458;-67
2022/06/22 08:29:43;;;;;;;4.77;4.30;;;23.20;99.90;;;;;;5110165;28;20435;-67
2022/06/22 08:32:22;;;;;;;4.53;4.07;;;22.90;99.90;;;;;;5109984;28;20503;-67
2022/06/22 08:34:53;;;;;;;4.60;4.17;;;23.00;1.00;;;;;;5110617;28;20475;-73
2022/06/22 08:37:26;;;;;;;4.30;3.90;;;23.00;1.00;;;;;;5097338;28;20841;-68
2022/06/22 08:39:57;;;;;;;4.90;4.30;;;23.00;99.90;;;;;;5109952;28;20505;-67
2022/06/22 08:42:41;;;;;;;5.70;4.90;;;23.10;99.90;;;;;;5110697;28;20420;-68
2022/06/22 08:45:34;;;;;;;4.87;4.47;;;23.20;99.90;;;;;;5110156;28;20922;-68
2022/06/22 08:48:15;;;;;;;4.83;4.30;;;23.30;99.90;;;;;;5109738;28;20531;-67
2022/06/22 08:51:14;;;;;;;4.67;4.20;;;23.20;1.00;;;;;;5110826;28;20468;-66
2022/06/22 08:53:56;;;;;;;4.83;4.30;;;23.00;99.90;;;;;;5110591;28;20478;-67
2022/06/22 08:56:33;;;;;;;7.37;4.80;;;22.80;99.90;;;;;;5110457;28;20431;-67
2022/06/22 08:59:38;;;;;;;5.67;4.57;;;22.70;99.90;;;;;;5109623;28;20446;-71
2022/06/22 09:02:21;;;;;;;5.57;5.07;;;22.80;99.90;;;;;;5047112;28;20853;-67
2022/06/22 09:05:14;;;;;;;4.67;4.27;;;22.80;99.90;;;;;;5105912;28;20444;-67
2022/06/22 09:08:04;;;;;;;4.90;4.50;;;23.00;99.90;;;;;;5110067;28;20458;-69
2022/06/22 09:10:42;;;;;;;8.00;4.80;;;23.10;99.90;;;;;;5110661;28;20970;-67
2022/06/22 09:13:31;;;;;;;7.70;5.03;;;23.10;1.00;;;;;;5119607;28;20446;-67
2022/06/22 09:16:12;;;;;;;4.50;4.10;;;23.10;1.00;;;;;;5109789;28;20446;-66
2022/06/22 09:18:55;;;;;;;5.20;4.70;;;23.20;1.00;;;;;;5109998;28;20962;-66
2022/06/22 09:21:32;;;;;;;5.73;5.23;;;23.00;1.00;;;;;;5102452;28;20835;-66
2022/06/22 09:24:06;;;;;;;9.20;5.17;;;23.10;1.00;;;;;;5113739;28;20902;-66
2022/06/22 09:26:44;;;;;;;5.27;4.77;;;23.20;1.00;;;;;;5114177;28;20495;-66
2022/06/22 09:29:30;;;;;;;8.60;5.57;;;23.40;1.00;;;;;;5113715;28;20439;-66
2022/06/22 09:32:30;;;;;;;6.37;4.50;;;23.30;1.00;;;;;;5113067;28;20447;-67
2022/06/22 09:35:46;;;;;;;4.60;4.20;;;23.30;1.00;;;;;;5089411;28;20507;-67
2022/06/22 09:38:57;;;;;;;4.60;4.20;;;23.50;1.00;;;;;;5113091;28;20489;-67
2022/06/22 09:41:37;;;;;;;5.70;4.70;;;23.50;99.90;;;;;;5050978;28;20442;-66
2022/06/22 09:44:32;;;;;;;9.03;4.90;;;23.60;99.90;;;;;;5038827;28;20445;-67
2022/06/22 09:47:22;;;;;;;4.70;3.90;;;23.90;99.90;;;;;;5064937;28;20475;-67
2022/06/22 09:50:15;;;;;;;4.33;3.93;;;23.90;99.90;;;;;;5113514;28;20906;-67
2022/06/22 09:53:08;;;;;;;4.87;4.47;;;23.80;99.90;;;;;;5113706;28;20432;-67
2022/06/22 09:56:22;;;;;;;5.60;5.07;;;24.00;99.90;;;;;;5113790;28;20571;-67
2022/06/22 09:59:24;;;;;;;5.40;4.90;;;23.80;99.90;;;;;;5113221;28;20519;-72
2022/06/22 10:02:00;;;;;;;4.97;4.47;;;23.90;99.90;;;;;;5112901;28;20527;-66
2022/06/22 10:05:04;;;;;;;5.37;4.70;;;24.00;99.90;;;;;;5113360;28;21029;-67
2022/06/22 10:07:45;;;;;;;4.53;4.13;;;23.70;99.90;;;;;;5113136;28;20432;-66
2022/06/22 10:10:24;;;;;;;5.70;4.83;;;23.80;99.90;;;;;;5113189;28;20522;-66
2022/06/22 10:13:28;;;;;;;5.97;5.47;;;23.70;99.90;;;;;;5123600;27;20967;-67
2022/06/22 10:16:06;;;;;;;5.07;4.67;;;23.50;99.90;;;;;;5089220;28;20467;-66
2022/06/22 10:18:45;;;;;;;5.63;5.13;;;23.70;99.90;;;;;;5112897;28;20463;-66
2022/06/22 10:21:22;;;;;;;5.97;5.37;;;23.60;99.90;;;;;;5112979;28;20457;-66
2022/06/22 10:24:10;;;;;;;4.00;3.70;;;23.60;1.00;;;;;;5112970;28;20439;-71
2022/06/22 10:26:49;;;;;;;7.00;4.87;;;23.70;1.00;;;;;;5112989;28;20982;-67
2022/06/22 10:29:42;;;;;;;5.70;5.20;;;23.60;93.40;;;;;;5112814;28;20530;-66
2022/06/22 10:32:50;;;;;;;5.70;5.10;;;23.60;1.00;;;;;;5112063;28;20507;-66
2022/06/22 10:35:37;;;;;;;4.90;4.40;;;23.60;99.90;;;;;;5112737;28;20507;-67
2022/06/22 10:38:29;;;;;;;5.03;4.53;;;23.60;1.00;;;;;;5111920;28;20532;-67
2022/06/22 10:47:23;;;;;;;6.63;5.83;;;22.90;1.00;;;;;;5106679;28;20542;-67
2022/06/22 10:49:57;;;;;;;4.80;4.40;;;;;;;;;;5111712;28;21110;-70
2022/06/22 10:52:33;;;;;;;6.03;5.43;;;;;;;;;;5112604;28;20468;-66
2022/06/22 10:55:15;;;;;;;4.47;4.07;;;;;;;;;;5111922;28;20515;-67
2022/06/22 10:57:50;;;;;;;7.43;5.30;;;;;;;;;;5099342;28;20534;-66
2022/06/22 11:00:21;;;;;;;4.83;4.43;;;;;;;;;;5112653;28;20449;-66
2022/06/22 11:03:08;;;;;;;4.30;4.00;;;;;;;;;;5112927;28;20570;-66
2022/06/22 11:05:44;;;;;;;7.00;4.90;;;;;;;;;;5081903;28;20505;-66
2022/06/22 11:08:20;;;;;;;3.80;3.50;;;;;;;;;;5111706;28;20471;-66
2022/06/22 11:11:02;;;;;;;4.00;3.70;;;;;;;;;;5112448;28;20523;-66
2022/06/22 11:13:53;;;;;;;3.73;3.37;;;;;;;;;;5102615;28;20941;-66
2022/06/22 11:16:26;;;;;;;5.20;4.73;;;;;;;;;;5054741;27;20443;-69
2022/06/22 11:19:11;;;;;;;4.20;3.80;;;;;;;;;;5111432;28;20523;-67
2022/06/22 11:21:47;;;;;;;4.90;4.00;;;;;;;;;;5111933;28;20551;-66
2022/06/22 11:24:35;;;;;;;3.30;3.00;;;;;;;;;;5111443;28;20516;-66
2022/06/22 11:32:52;;;;;;;5.33;4.20;;;;;;;;;;5083011;28;20510;-67
2022/06/22 11:35:36;;;;;;;4.80;4.30;;;;;;;;;;5111580;28;20528;-66
2022/06/22 11:38:10;;;;;;;4.93;4.37;;;;;;;;;;5110875;28;20833;-66
2022/06/22 11:40:44;;;;;;;5.53;5.00;;;;;;;;;;5098503;28;20440;-66
2022/06/22 11:43:28;;;;;;;4.70;4.30;;;;;;;;;;5110561;28;20471;-67
2022/06/22 11:46:00;;;;;;;5.03;4.60;;;;;;;;;;5111372;28;20519;-67
2022/06/22 11:48:47;;;;;;;4.83;4.33;;;;;;;;;;5111213;28;20507;-68
2022/06/22 11:51:19;;;;;;;4.30;3.93;;;;;;;;;;5110937;28;20888;-66
2022/06/22 11:53:56;;;;;;;5.67;4.37;;;;;;;;;;5111430;28;20443;-67
2022/06/22 11:56:30;;;;;;;4.53;4.13;;;;;;;;;;5111008;28;20950;-66
2022/06/22 11:59:07;;;;;;;6.47;5.50;;;;;;;;;;5110565;28;20760;-67
2022/06/22 12:01:49;;;;;;;7.80;4.77;;;;;;;;;;5111054;28;20511;-67
2022/06/22 12:04:34;;;;;;;5.40;4.93;;;;;;;;;;5111171;28;20472;-68
2022/06/22 12:07:17;;;;;;;5.13;4.53;;;;;;;;;;5110518;28;20531;-68
2022/06/22 12:09:51;;;;;;;5.23;4.53;;;;;;;;;;5110629;28;20472;-67
2022/06/22 12:12:30;;;;;;;5.70;5.10;;;;;;;;;;5122168;27;20478;-67
2022/06/22 12:15:09;;;;;;;5.50;4.53;;;;;;;;;;5110679;28;20555;-67
2022/06/22 12:17:53;;;;;;;5.00;4.60;;;;;;;;;;5110574;28;20436;-67
2022/06/22 12:20:28;;;;;;;5.27;4.80;;;;;;;;;;5110619;28;20448;-69
2022/06/22 12:23:01;;;;;;;5.03;4.40;;;;;;;;;;5110478;28;20496;-66
2022/06/22 12:25:36;;;;;;;6.43;4.23;;;;;;;;;;5110782;28;20483;-67
2022/06/22 12:28:13;;;;;;;5.10;4.17;;;;;;;;;;5110171;28;20493;-67
2022/06/22 12:30:45;;;;;;;9.13;5.10;;;;;;;;;;5110631;28;20740;-67
2022/06/22 12:33:15;;;;;;;5.43;4.30;;;;;;;;;;5110095;28;20937;-67
2022/06/22 12:35:44;;;;;;;5.53;3.27;;;;;;;;;;5110789;28;20614;-67
2022/06/22 12:38:17;;;;;;;3.60;3.30;;;;;;;;;;5109980;28;20751;-67
2022/06/22 12:40:49;;;;;;;7.33;3.57;;;;;;;;;;5110768;28;20443;-68
2022/06/22 12:43:29;;;;;;;4.13;3.00;;;;;;;;;;5110863;28;20832;-67
2022/06/22 12:45:57;;;;;;;4.80;3.43;;;;;;;;;;5110254;28;20514;-68
2022/06/22 12:48:43;;;;;;;5.97;3.47;;;;;;;;;;5110400;28;20436;-68
2022/06/22 12:51:17;;;;;;;4.80;2.80;;;;;;;;;;5110219;28;20443;-65
2022/06/22 12:53:48;;;;;;;4.00;3.00;;;;;;;;;;5111244;28;20431;-68
2022/06/22 12:56:21;;;;;;;3.83;2.50;;;;;;;;;;5114609;28;20477;-66
2022/06/22 12:58:51;;;;;;;3.53;2.20;;;;;;;;;;5114640;28;20440;-67
2022/06/22 13:01:18;;;;;;;4.33;2.20;;;;;;;;;;5114612;28;20522;-66
2022/06/22 13:03:49;;;;;;;2.63;2.40;;;;;;;;;;5114830;28;20530;-66
2022/06/22 13:06:16;;;;;;;2.87;2.37;;;;;;;;;;5114678;28;20444;-67
2022/06/22 13:08:44;;;;;;;3.20;2.00;;;;;;;;;;5113835;28;20522;-67
2022/06/22 13:11:15;;;;;;;4.03;2.63;;;;;;;;;;5114193;28;20451;-67
2022/06/22 13:13:47;;;;;;;4.80;2.90;;;;;;;;;;5114580;28;20841;-67
2022/06/22 13:16:16;;;;;;;2.57;2.00;;;;;;;;;;5113812;28;20571;-67
2022/06/22 13:18:48;;;;;;;3.17;2.43;;;;;;;;;;5113752;28;20439;-68
2022/06/22 13:21:18;;;;;;;5.17;2.90;;;;;;;;;;5114353;28;20447;-67
2022/06/22 13:23:48;;;;;;;4.07;2.50;;;;;;;;;;5114714;28;20839;-67
2022/06/22 13:26:23;;;;;;;3.20;2.63;;;;;;;;;;5114399;28;20922;-67
2022/06/22 13:28:55;;;;;;;3.80;3.53;;;;;;;;;;5113337;28;20443;-69
2022/06/22 13:31:23;;;;;;;4.90;2.80;;;;;;;;;;5113859;28;20440;-67
2022/06/22 13:33:53;;;;;;;2.63;2.43;;;;;;;;;;5113619;28;20562;-68
2022/06/22 13:36:25;;;;;;;4.33;2.53;;;;;;;;;;5114122;28;20944;-67
2022/06/22 13:39:02;;;;;;;5.57;3.60;;;22.70;43.80;;;;;;5113424;28;20435;-66
2022/06/22 13:41:40;;;;;;;6.30;3.73;;;;;;;;;;5114033;28;20446;-67
2022/06/22 13:44:17;;;;;;;4.60;3.30;;;;;;;;;;5113588;28;20601;-68
2022/06/22 13:46:53;;;;;;;2.87;2.43;;;;;;;;;;5113935;28;20469;-67
2022/06/22 13:49:22;;;;;;;6.53;2.50;;;;;;;;;;5113447;28;20439;-69
2022/06/22 13:51:58;;;;;;;6.30;2.97;;;;;;;;;;5113502;28;20974;-72
2022/06/22 13:54:43;;;;;;;6.10;3.20;;;;;;;;;;5113807;28;20794;-69
2022/06/22 13:57:12;;;;;;;3.33;2.03;;;;;;;;;;5113306;28;20918;-68
2022/06/22 13:59:45;;;;;;;2.57;2.37;;;;;;;;;;5113699;28;20436;-68
2022/06/22 14:02:21;;;;;;;6.60;2.60;;;;;;;;;;5113048;28;20452;-67
2022/06/22 14:04:50;;;;;;;3.50;2.20;;;;;;;;;;5113333;28;20440;-67
2022/06/22 14:07:24;;;;;;;3.37;2.20;;;;;;;;;;5112925;28;20479;-67
2022/06/22 14:09:55;;;;;;;6.00;2.37;;;;;;;;;;5113174;28;20475;-68
2022/06/22 14:12:24;;;;;;;3.87;2.20;;;;;;;;;;5124108;27;20981;-67
2022/06/22 14:15:02;;;;;;;4.13;2.87;;;23.40;1.00;;;;;;5113251;28;20477;-67
2022/06/22 14:17:34;;;;;;;3.97;2.30;;;25.60;1.00;;;;;;5112660;28;20867;-67
2022/06/22 14:20:12;;;;;;;6.63;2.33;;;25.20;1.00;;;;;;5112758;28;20463;-67
2022/06/22 14:22:41;;;;;;;4.23;2.00;;;24.90;1.00;;;;;;5113392;28;20516;-67
2022/06/22 14:25:15;;;;;;;5.80;1.90;;;25.00;1.00;;;;;;5112648;28;20937;-67
2022/06/22 14:27:50;;;;;;;3.87;2.00;;;25.20;1.00;;;;;;5112547;28;20522;-67
2022/06/22 14:30:30;;;;;;;6.97;2.30;;;25.60;1.00;;;;;;5113356;28;20434;-67
2022/06/22 14:33:29;;;;;;;3.20;2.10;;;25.70;1.00;;;;;;5112475;28;20474;-67
2022/06/22 14:36:08;;;;;;;4.37;2.73;;;26.30;1.00;;;;;;5101337;28;20482;-67
2022/06/22 14:38:45;;;;;;;7.97;3.27;;;26.60;1.00;;;;;;5112897;28;20606;-67
2022/06/22 14:41:24;;;;;;;8.70;2.60;;;25.50;1.00;;;;;;5113298;28;20833;-66
2022/06/22 14:43:59;;;;;;;2.87;2.00;;;25.20;1.00;;;;;;5112490;28;20523;-68
2022/06/22 14:46:39;;;;;;;5.50;1.97;;;25.30;1.00;;;;;;5112559;28;20467;-69
2022/06/22 14:49:09;;;;;;;3.43;1.80;;;;;;;;;;5112050;28;20486;-66
2022/06/22 14:51:40;;;;;;;2.37;1.70;;;;;;;;;;5112647;28;20531;-66
2022/06/22 14:54:13;;;;;;;5.50;2.17;;;;;;;;;;5112185;28;20435;-66
2022/06/22 14:56:42;;;;;;;5.20;2.13;;;;;;;;;;5112357;28;21049;-67
2022/06/22 14:59:15;;;;;;;2.97;2.00;;;;;;;;;;5111535;28;20563;-66
2022/06/22 15:01:50;;;;;;;3.47;2.30;;;25.10;1.00;;;;;;5112073;28;20445;-67